Latest Coastal Weather Observations for Gabo Island

IDT60701

Issued at 6:32 am EST Wednesday 28 September 2016 (issued every 10 minutes, with the page automatically refreshed every 10 minutes)

About coastal observations | Map of coastal stations | Coastal observations for TAS | Marine services | Other Formats
Station Details ID: 084016 Name: GABO ISLAND LIGHTHOUSE Lat: -37.57 Lon: 149.92 Height: 15.2 m
Data from the previous 72 hours. | See also: Recent months at Gabo Island
Date/Time
EST
Temp
°C
Wind Pressure Rain since
9am
mm
Weather Cloud Vis
km
Sea
Height
m
Swell
Dir  Spd
kts
Gust
kts
hPa Trend Height
m
Period
s
Dir
28/06:30am 10.9 W 14 18 1013.3 - 1.0 - - - - - - -
28/06:00am 10.6 W 15 19 1013.1 - 1.0 - - - - - - -
28/05:30am 10.4 W 14 18 1012.8 - 1.0 - - - - - - -
28/05:00am 10.4 W 14 21 1012.6 - 1.0 - - - - - - -
28/04:30am 10.9 W 17 21 1012.3 - 1.0 - - - - - - -
28/04:00am 10.9 W 14 20 1012.2 - 1.0 - - - - - - -
28/03:30am 11.1 W 16 20 1011.9 - 1.0 - - - - - - -
28/03:00am 10.8 W 16 21 1011.8 - 1.0 Fine Mostly clear 30 1 1.0 - -
28/02:30am 11.0 W 18 22 1011.7 - 1.0 - - - - - - -
28/02:00am 10.9 W 16 20 1011.8 - 1.0 - - - - - - -
28/01:30am 10.5 W 12 16 1011.9 - 1.0 - - - - - - -
28/01:00am 10.6 W 13 18 1012.1 - 1.0 - - - - - - -
28/12:30am 10.9 W 12 16 1012.1 - 1.0 - - - - - - -
28/12:00am 10.5 WNW 11 15 1012.0 - 1.0 - - - - - - -
 
Date/Time
EST
Temp
°C
Wind Pressure Rain since
9am
mm
Weather Cloud Vis
km
Sea
Height
m
Swell
Dir  Spd
kts
Gust
kts
hPa Trend Height
m
Period
s
Dir
27/11:30pm 11.0 W 12 16 1011.8 - 1.0 - - - - - - -
27/11:00pm 11.1 W 13 17 1011.8 - 1.0 - - - - - - -
27/10:30pm 10.8 W 11 15 1011.9 - 1.0 - - - - - - -
27/10:00pm 10.9 W 11 14 1011.9 - 1.0 - - - - - - -
27/09:30pm 10.8 WNW 10 13 1012.0 - 1.0 - - - - - - -
27/09:00pm 11.0 W 12 15 1012.1 - 1.0 Fine Mostly clear 30 1 1.0 - -
27/08:30pm 11.5 W 13 16 1011.9 - 1.0 - - - - - - -
27/08:00pm 11.9 W 16 19 1011.7 - 1.0 - - - - - - -
27/07:30pm 12.3 WSW 19 25 1011.3 - 1.0 - - - - - - -
27/07:00pm 12.1 WSW 19 23 1011.1 - 1.0 - - - - - - -
27/06:30pm 12.2 WSW 19 24 1010.8 - 1.0 - - - - - - -
27/06:00pm 12.5 WSW 20 27 1010.7 - 1.0 - - - - - - -
27/05:30pm 12.5 WSW 23 29 1010.3 - 1.0 - - - - - - -
27/05:00pm 12.7 WSW 20 24 1010.2 - 1.0 - - - - - - -
27/04:30pm 12.5 WSW 24 31 1009.8 - 1.0 - - - - - - -
27/04:00pm 12.8 SW 27 33 1009.3 - 1.0 - - - - - - -
27/03:30pm 13.0 SW 29 35 1008.9 - 1.0 - - - - - - -
27/03:00pm 13.2 SW 28 36 1008.7 - 1.0 Recent precip. Mostly cloudy 20 2 1.0 - -
27/02:30pm 13.0 SW 30 36 1008.5 - 1.0 - - - - - - -
27/02:00pm 12.7 SW 28 34 1008.5 - 1.0 - - - - - - -
27/01:30pm 12.4 SW 27 34 1008.5 - 1.0 - - - - - - -
27/01:00pm 12.0 SW 31 37 1008.4 - 1.0 - - - - - - -
27/12:30pm 11.3 SSW 27 32 1008.5 - 0.8 - - - - - - -
27/12:00pm 10.7 SSW 27 32 1008.6 - 0.6 Rain - - - - - -
27/11:30am 11.6 SSW 30 35 1008.3 - 0.0 - - - - - - -
27/11:10am 10.7 SW 23 34 1008.5 - 0.0 - - - - - - -
27/11:00am 10.3 WSW 26 32 1008.5 - 0.0 - - - - - - -
27/10:30am 10.7 WSW 24 31 1008.4 - 0.0 - - - - - - -
27/10:00am 10.7 WSW 28 33 1008.4 - 0.0 - - - - - - -
27/09:30am 10.0 WSW 22 29 1008.4 - 0.0 - - - - - - -
27/09:00am 9.2 W 20 26 1008.8 - 2.8 Recent precip. Cloudy 20 1 1.0 - -
27/08:30am 8.5 W 21 27 1008.9 - 2.4 - - - - - - -
27/08:02am 9.5 W 15 27 1008.9 - 1.0 - - - - - - -
27/08:00am 9.6 W 14 19 1008.9 - 0.8 - - - - - - -
27/07:30am 10.2 W 16 20 1008.1 - 0.0 - - - - - - -
27/07:26am 10.0 W 15 20 1007.9 - 0.0 - - - - - - -
27/07:00am 11.0 SSW 3 7 1007.1 - 0.0 - - - - - - -
27/06:30am 10.1 N 3 5 1007.2 - 0.0 - - - - - - -
27/06:00am 10.5 N 4 6 1007.2 - 0.0 - - - - - - -
27/05:30am 9.9 WSW 1 3 1007.0 - 0.0 - - - - - - -
27/05:00am 9.9 WNW 3 4 1007.4 - 0.0 - - - - - - -
27/04:30am 9.7 N 3 4 1007.5 - 0.0 - - - - - - -
27/04:00am 9.6 N 6 8 1007.7 - 0.0 - - - - - - -
27/03:30am 10.1 N 7 8 1008.1 - 0.0 - - - - - - -
27/03:00am 9.1 N 6 8 1008.4 - 0.0 Fine Mostly cloudy 30 <0.5 1.0 - -
27/02:30am 9.2 N 6 8 1008.8 - 0.0 - - - - - - -
27/02:00am 9.1 N 5 6 1009.2 - 0.0 - - - - - - -
27/01:30am 10.3 N 3 4 1009.7 - 0.0 - - - - - - -
27/01:00am 9.2 NNW 5 6 1010.0 - 0.0 - - - - - - -
27/12:30am 10.2 NW 7 8 1010.5 - 0.0 - - - - - - -
27/12:00am 9.5 NNW 7 8 1010.7 - 0.0 - - - - - - -
 
Date/Time
EST
Temp
°C
Wind Pressure Rain since
9am
mm
Weather Cloud Vis
km
Sea
Height
m
Swell
Dir  Spd
kts
Gust
kts
hPa Trend Height
m
Period
s
Dir
26/11:30pm 9.8 NW 7 8 1010.9 - 0.0 - - - - - - -
26/11:00pm 9.9 NW 8 8 1011.1 - 0.0 - - - - - - -
26/10:30pm 10.7 NW 6 8 1011.4 - 0.0 - - - - - - -
26/10:00pm 10.7 NW 6 8 1011.7 - 0.0 - - - - - - -
26/09:30pm 11.0 NW 7 10 1011.9 - 0.0 - - - - - - -
26/09:00pm 10.9 W 8 10 1011.8 - 0.0 Fine Partly cloudy 30 1 1.0 - -
26/08:30pm 10.8 WNW 7 9 1011.7 - 0.0 - - - - - - -
26/08:00pm 11.8 W 8 10 1011.5 - 0.0 - - - - - - -
26/07:30pm 12.5 SW 9 11 1011.3 - 0.0 - - - - - - -
26/07:00pm 13.1 SW 10 12 1011.2 - 0.0 - - - - - - -
26/06:30pm 13.0 SW 10 12 1010.9 - 0.0 - - - - - - -
26/06:00pm 13.3 SW 13 14 1010.9 - 0.0 - - - - - - -
26/05:30pm 13.5 SSW 12 15 1010.6 - 0.0 - - - - - - -
26/05:00pm 13.9 SSW 14 17 1010.3 - 0.0 - - - - - - -
26/04:30pm 13.6 SSW 15 17 1010.1 - 0.0 - - - - - - -
26/04:00pm 14.0 SSW 17 20 1010.1 - 0.0 - - - - - - -
26/03:30pm 14.3 SSW 19 21 1010.0 - 0.0 - - - - - - -
26/03:00pm 14.3 SSW 18 22 1009.9 - 0.0 Fine Partly cloudy 30 1 1.0 - -
26/02:30pm 14.1 SSW 18 21 1010.2 - 0.0 - - - - - - -
26/02:00pm 14.1 SSW 19 23 1010.2 - 0.0 - - - - - - -
26/01:30pm 14.2 SSW 19 21 1010.4 - 0.0 - - - - - - -
26/01:00pm 13.9 SSW 21 24 1010.6 - 0.0 - - - - - - -
26/12:30pm 13.7 SSW 22 26 1010.9 - 0.0 - - - - - - -
26/12:00pm 13.2 SW 22 25 1011.3 - 0.0 - - - - - - -
26/11:30am 13.6 SW 21 24 1011.5 - 0.0 - - - - - - -
26/11:00am 14.1 SW 18 21 1011.9 - 0.0 - - - - - - -
26/10:30am 13.8 SW 19 23 1012.0 - 0.0 - - - - - - -
26/10:00am 14.5 WSW 15 19 1012.2 - 0.0 - - - - - - -
26/09:30am 13.3 WSW 16 19 1012.5 - 0.0 - - - - - - -
26/09:00am 12.8 WSW 17 21 1012.7 - 0.4 Fine Mostly cloudy 30 2 1.0 - -
26/08:30am 12.6 WSW 17 21 1012.4 - 0.4 - - - - - - -
26/08:00am 11.5 W 21 25 1012.5 - 0.4 - - - - - - -
26/07:30am 11.1 WSW 21 25 1012.2 - 0.4 - - - - - - -
26/07:00am 10.8 W 22 27 1012.1 - 0.4 - - - - - - -
26/06:30am 10.5 W 20 25 1012.3 - 0.4 - - - - - - -
26/06:00am 10.3 W 20 27 1012.1 - 0.4 - - - - - - -
26/05:30am 10.3 W 20 25 1011.9 - 0.4 - - - - - - -
26/05:00am 10.4 W 21 27 1011.5 - 0.4 - - - - - - -
26/04:30am 10.3 W 21 27 1011.4 - 0.4 - - - - - - -
26/04:00am 10.3 W 20 25 1011.3 - 0.4 - - - - - - -
26/03:30am 10.4 W 22 26 1011.2 - 0.4 - - - - - - -
26/03:00am 10.2 W 23 28 1011.1 - 0.4 Fine Mostly clear 30 3 1.0 - -
26/02:30am 10.3 W 22 29 1011.4 - 0.4 - - - - - - -
26/02:00am 10.3 W 20 25 1011.8 - 0.4 - - - - - - -
26/01:30am 10.8 W 20 25 1012.0 - 0.4 - - - - - - -
26/01:00am 11.4 W 20 25 1012.1 - 0.4 - - - - - - -
26/12:30am 11.7 W 17 21 1012.0 - 0.4 - - - - - - -
26/12:00am 12.3 WSW 21 27 1011.8 - 0.4 - - - - - - -
 
Date/Time
EST
Temp
°C
Wind Pressure Rain since
9am
mm
Weather Cloud Vis
km
Sea
Height
m
Swell
Dir  Spd
kts
Gust
kts
hPa Trend Height
m
Period
s
Dir
25/11:30pm 12.5 WSW 23 33 1011.7 - 0.4 - - - - - - -
25/11:27pm 12.6 WSW 25 35 1011.7 - 0.4 - - - - - - -
25/11:00pm 13.0 WSW 27 34 1011.6 - 0.4 - - - - - - -
25/10:38pm 12.7 WSW 18 29 1011.7 - 0.4 - - - - - - -
25/10:30pm 12.3 WSW 18 26 1011.7 - 0.4 - - - - - - -
25/10:00pm 11.8 W 16 19 1011.7 - 0.4 - - - - - - -
25/09:30pm 12.6 W 17 21 1011.5 - 0.4 - - - - - - -
25/09:20pm 12.7 W 16 29 1011.5 - 0.4 - - - - - - -
25/09:00pm 13.4 SW 27 33 1011.1 - 0.4 Fine Mostly cloudy 20 2 1.0 - -
25/08:30pm 13.3 SW 28 33 1010.9 - 0.4 - - - - - - -
25/08:00pm 13.0 WSW 24 30 1010.8 - 0.4 - - - - - - -
25/07:30pm 13.3 WSW 23 31 1010.5 - 0.4 - - - - - - -
25/07:00pm 13.3 SW 23 29 1010.1 - 0.4 - - - - - - -
25/06:30pm 13.5 SW 27 33 1009.6 - 0.4 - - - - - - -
25/06:00pm 13.5 SW 26 32 1009.5 - 0.4 - - - - - - -
25/05:30pm 13.4 SW 26 31 1009.2 - 0.4 - - - - - - -
25/05:00pm 13.4 SW 27 33 1009.0 - 0.4 - - - - - - -
25/04:30pm 13.5 SW 27 35 1008.8 - 0.4 - - - - - - -
25/04:00pm 13.4 SW 27 34 1008.5 - 0.4 - - - - - - -
25/03:30pm 13.1 SW 25 31 1008.6 - 0.4 - - - - - - -
25/03:00pm 13.2 SW 25 30 1008.5 - 0.4 Distant precip. Cloudy 10 2 1.0 - -
25/02:30pm 13.3 SW 26 31 1008.3 - 0.4 - - - - - - -
25/02:00pm 13.8 SW 21 27 1008.3 - 0.4 - - - - - - -
25/01:30pm 13.2 SW 26 34 1008.1 - 0.4 - - - - - - -
25/01:00pm 13.9 SW 27 34 1007.9 - 0.4 - - - - - - -
25/12:30pm 14.0 SW 27 36 1007.8 - 0.4 - - - - - - -
25/12:00pm 15.1 SW 30 36 1007.3 - 0.4 Rain - - - - - -
25/11:30am 13.3 WSW 29 35 1007.2 - 0.2 - - - - - - -
25/11:09am 14.6 WSW 26 36 1006.9 - 0.0 - - - - - - -
25/11:00am 15.1 WSW 23 29 1006.8 - 0.0 - - - - - - -
25/10:30am 14.5 SW 25 31 1006.9 - 0.0 - - - - - - -
25/10:00am 15.0 SW 25 30 1006.9 - 0.0 - - - - - - -
25/09:30am 15.9 SW 21 25 1006.8 - 0.0 - - - - - - -
25/09:00am 15.9 SW 19 24 1006.5 - 0.0 Fine Mostly cloudy 30 1 1.0 - -
25/08:30am 16.0 WSW 14 18 1006.4 - 0.0 - - - - - - -
25/08:00am 15.5 WSW 13 15 1006.1 - 0.0 - - - - - - -
25/07:30am 14.9 WSW 11 14 1005.7 - 0.0 - - - - - - -
25/07:00am 14.2 W 14 18 1004.8 - 0.0 - - - - - - -

Other Formats:

Comma delimited format used in spreadsheet applications
http://www.bom.gov.au/fwo/IDT60701/IDT60701.94933.axf

JavaScript Object Notation format (JSON) in row-major order
http://www.bom.gov.au/fwo/IDT60701/IDT60701.94933.json